createdAt,value
2022-08-19T00:01:30.772Z,15.90
2022-08-19T00:04:04.278Z,15.90
2022-08-19T00:06:31.853Z,15.90
2022-08-19T00:09:01.098Z,15.90
2022-08-19T00:11:28.839Z,15.90
2022-08-19T00:13:57.571Z,15.80
2022-08-19T00:16:26.889Z,15.80
2022-08-19T00:18:56.427Z,15.90
2022-08-19T00:21:25.416Z,15.80
2022-08-19T00:23:52.390Z,15.80
2022-08-19T00:26:19.532Z,15.80
2022-08-19T00:28:47.149Z,15.70
2022-08-19T00:31:14.247Z,15.70
2022-08-19T00:33:41.065Z,15.70
2022-08-19T00:36:10.307Z,15.70
2022-08-19T00:38:39.273Z,15.70
2022-08-19T00:41:07.332Z,15.70
2022-08-19T00:43:34.280Z,15.70
2022-08-19T00:46:03.866Z,15.70
2022-08-19T00:48:30.691Z,15.70
2022-08-19T00:50:57.730Z,15.60
2022-08-19T00:53:27.525Z,15.60
2022-08-19T00:55:57.660Z,15.60
2022-08-19T00:58:34.420Z,15.60
2022-08-19T01:01:02.474Z,15.60
2022-08-19T01:03:29.961Z,15.50
2022-08-19T01:06:20.082Z,15.50
2022-08-19T01:08:50.036Z,15.50
2022-08-19T01:11:17.734Z,15.50
2022-08-19T01:13:49.711Z,15.50
2022-08-19T01:16:19.825Z,15.50
2022-08-19T01:18:47.317Z,15.40
2022-08-19T01:21:57.243Z,15.40
2022-08-19T01:24:24.160Z,15.40
2022-08-19T01:26:52.447Z,15.40
2022-08-19T01:29:20.203Z,15.40
2022-08-19T01:31:48.257Z,15.40
2022-08-19T01:34:15.106Z,15.40
2022-08-19T01:36:48.099Z,15.30
2022-08-19T01:39:20.300Z,15.30
2022-08-19T01:41:48.932Z,15.30
2022-08-19T01:44:19.100Z,15.30
2022-08-19T01:46:48.732Z,15.30
2022-08-19T01:49:18.602Z,15.30
2022-08-19T01:51:45.814Z,15.30
2022-08-19T01:54:23.084Z,15.20
2022-08-19T01:56:58.788Z,15.20
2022-08-19T01:59:25.807Z,15.20
2022-08-19T02:01:52.671Z,15.20
2022-08-19T02:04:19.618Z,15.20
2022-08-19T02:06:46.456Z,15.20
2022-08-19T02:09:13.274Z,15.10
2022-08-19T02:11:40.181Z,15.20
2022-08-19T02:14:08.796Z,15.20
2022-08-19T02:16:37.221Z,15.10
2022-08-19T02:19:04.721Z,15.10
2022-08-19T02:21:32.059Z,15.20
2022-08-19T02:23:59.880Z,15.10
2022-08-19T02:26:29.987Z,15.10
2022-08-19T02:28:57.325Z,15.10
2022-08-19T02:31:26.258Z,15.10
2022-08-19T02:33:56.634Z,15.10
2022-08-19T02:36:25.958Z,15.10
2022-08-19T02:38:54.713Z,15.00
2022-08-19T02:41:31.996Z,15.00
2022-08-19T02:44:29.332Z,15.00
2022-08-19T02:46:51.832Z,15.00
2022-08-19T02:49:19.854Z,14.90
2022-08-19T02:51:47.272Z,14.90
2022-08-19T02:54:15.605Z,14.90
2022-08-19T02:56:44.032Z,14.90
2022-08-19T02:59:12.049Z,14.90
2022-08-19T03:01:41.516Z,14.90
2022-08-19T03:04:10.788Z,14.90
2022-08-19T03:06:39.948Z,14.90
2022-08-19T03:09:06.845Z,14.80
2022-08-19T03:11:34.389Z,14.80
2022-08-19T03:14:02.389Z,14.80
2022-08-19T03:16:33.151Z,14.80
2022-08-19T03:19:01.665Z,14.70
2022-08-19T03:21:31.652Z,14.70
2022-08-19T03:24:01.818Z,14.70
2022-08-19T03:26:29.124Z,14.70
2022-08-19T03:28:58.391Z,14.70
2022-08-19T03:31:45.710Z,14.70
2022-08-19T03:34:28.453Z,14.70
2022-08-19T03:37:01.583Z,14.70
2022-08-19T03:39:29.069Z,14.70
2022-08-19T03:42:33.075Z,14.60
2022-08-19T03:44:48.398Z,14.60
2022-08-19T03:47:17.823Z,14.60
2022-08-19T03:49:45.021Z,14.60
2022-08-19T03:52:11.970Z,14.60
2022-08-19T03:54:39.500Z,14.60
2022-08-19T03:57:07.078Z,14.60
2022-08-19T03:59:36.428Z,14.60
2022-08-19T04:02:10.171Z,14.50
2022-08-19T04:04:42.098Z,14.50
2022-08-19T04:07:10.489Z,14.50
2022-08-19T04:09:37.635Z,14.50
2022-08-19T04:12:06.496Z,14.50
2022-08-19T04:14:34.750Z,14.50
2022-08-19T04:17:05.545Z,14.50
2022-08-19T04:19:34.491Z,14.50
2022-08-19T04:22:01.402Z,14.50
2022-08-19T04:24:28.370Z,14.50
2022-08-19T04:26:55.389Z,14.50
2022-08-19T04:29:26.143Z,14.50
2022-08-19T04:31:55.462Z,14.50
2022-08-19T04:34:24.925Z,14.50
2022-08-19T04:36:53.956Z,14.50
2022-08-19T04:39:45.191Z,14.50
2022-08-19T04:42:31.207Z,14.60
2022-08-19T04:44:59.503Z,14.60
2022-08-19T04:47:47.638Z,14.60
2022-08-19T04:50:13.980Z,14.60
2022-08-19T04:52:44.203Z,14.60
2022-08-19T04:55:12.753Z,14.60
2022-08-19T04:57:41.270Z,14.60
2022-08-19T05:00:10.341Z,14.60
2022-08-19T05:02:37.428Z,14.60
2022-08-19T05:05:04.828Z,14.60
2022-08-19T05:07:31.836Z,14.60
2022-08-19T05:09:59.245Z,14.70
2022-08-19T05:12:29.230Z,14.70
2022-08-19T05:14:57.990Z,14.80
2022-08-19T05:17:27.994Z,14.80
2022-08-19T05:20:15.181Z,14.80
2022-08-19T05:22:44.768Z,14.90
2022-08-19T05:25:15.161Z,15.00
2022-08-19T05:27:43.011Z,15.00
2022-08-19T05:30:11.358Z,15.10
2022-08-19T05:32:39.034Z,15.10
2022-08-19T05:35:07.086Z,15.20
2022-08-19T05:37:34.066Z,15.20
2022-08-19T05:40:01.106Z,15.20
2022-08-19T05:42:28.065Z,15.20
2022-08-19T05:44:55.014Z,15.30
2022-08-19T05:47:22.336Z,15.30
2022-08-19T05:49:51.428Z,15.30
2022-08-19T05:52:19.628Z,15.30
2022-08-19T05:54:53.332Z,15.40
2022-08-19T05:57:20.469Z,15.40
2022-08-19T05:59:52.707Z,15.50
2022-08-19T06:02:26.003Z,15.60
2022-08-19T06:04:53.107Z,15.60
2022-08-19T06:07:20.482Z,15.70
2022-08-19T06:10:00.062Z,15.80
2022-08-19T06:12:35.238Z,15.90
2022-08-19T06:15:06.762Z,16.00
2022-08-19T06:17:35.767Z,16.10
2022-08-19T06:20:14.132Z,16.10
2022-08-19T06:22:46.828Z,16.20
2022-08-19T06:25:15.576Z,16.30
2022-08-19T06:27:58.946Z,16.40
2022-08-19T06:30:30.586Z,16.50
2022-08-19T06:32:57.498Z,16.60
2022-08-19T06:35:24.564Z,16.70
2022-08-19T06:37:51.565Z,16.80
2022-08-19T06:40:18.505Z,17.00
2022-08-19T06:42:54.129Z,17.10
2022-08-19T06:45:24.648Z,17.20
2022-08-19T06:47:56.792Z,17.30
2022-08-19T06:50:25.156Z,17.50
2022-08-19T06:52:52.751Z,17.70
2022-08-19T06:55:20.249Z,18.50
2022-08-19T06:57:49.175Z,19.70
2022-08-19T07:00:17.005Z,21.10
2022-08-19T07:02:49.720Z,22.60
2022-08-19T07:05:23.003Z,24.00
2022-08-19T07:07:51.017Z,25.60
2022-08-19T07:10:18.712Z,26.70
2022-08-19T07:12:45.701Z,27.80
2022-08-19T07:15:12.969Z,28.80
2022-08-19T07:17:41.823Z,29.60
2022-08-19T07:20:10.349Z,30.30
2022-08-19T07:22:39.060Z,31.00
2022-08-19T07:25:08.599Z,31.60
2022-08-19T07:27:35.614Z,32.10
2022-08-19T07:30:02.797Z,32.60
2022-08-19T07:32:31.283Z,33.00
2022-08-19T07:35:01.584Z,33.20
2022-08-19T07:37:33.139Z,33.20
2022-08-19T07:40:01.398Z,33.20
2022-08-19T07:42:30.695Z,33.10
2022-08-19T07:44:59.337Z,33.00
2022-08-19T07:47:50.228Z,33.20
2022-08-19T07:50:13.528Z,33.40
2022-08-19T07:52:41.034Z,33.50
2022-08-19T07:55:11.413Z,33.70
2022-08-19T07:57:58.130Z,33.90
2022-08-19T08:00:25.061Z,34.30
2022-08-19T08:02:55.553Z,34.60
2022-08-19T08:05:44.153Z,34.80
2022-08-19T08:08:30.952Z,34.80
2022-08-19T08:10:59.616Z,35.00
2022-08-19T08:13:27.947Z,35.30
2022-08-19T08:15:56.091Z,35.30
2022-08-19T08:18:27.846Z,35.10
2022-08-19T08:20:57.720Z,34.60
2022-08-19T08:23:29.629Z,34.30
2022-08-19T08:25:58.994Z,34.50
2022-08-19T08:28:29.666Z,35.00
2022-08-19T08:30:58.048Z,35.40
2022-08-19T08:33:33.377Z,35.70
2022-08-19T08:36:08.744Z,36.30
2022-08-19T08:38:39.754Z,36.80
2022-08-19T08:41:31.435Z,37.20
2022-08-19T08:43:58.662Z,37.70
2022-08-19T08:46:32.412Z,38.00
2022-08-19T08:49:21.337Z,38.20
2022-08-19T08:52:03.602Z,38.50
2022-08-19T08:54:41.363Z,38.80
2022-08-19T08:57:40.580Z,39.10
2022-08-19T09:00:15.920Z,39.30
2022-08-19T09:02:43.954Z,39.50
2022-08-19T09:05:16.489Z,39.60
2022-08-19T09:07:50.081Z,39.50
2022-08-19T09:10:33.625Z,39.30
2022-08-19T09:13:00.832Z,39.30
2022-08-19T09:15:36.830Z,39.20
2022-08-19T09:18:07.223Z,39.20
2022-08-19T09:20:34.429Z,39.20
2022-08-19T09:23:01.357Z,39.20
2022-08-19T09:25:29.408Z,39.30
2022-08-19T09:28:02.333Z,39.40
2022-08-19T09:30:33.985Z,39.60
2022-08-19T09:33:01.887Z,39.60
2022-08-19T09:35:30.880Z,39.60
2022-08-19T09:38:00.066Z,39.70
2022-08-19T09:40:30.318Z,39.70
2022-08-19T09:43:01.086Z,39.60
2022-08-19T09:45:29.363Z,39.50
2022-08-19T09:47:57.449Z,39.40
2022-08-19T09:50:24.964Z,39.10
2022-08-19T09:52:57.292Z,38.70
2022-08-19T09:55:31.488Z,38.40
2022-08-19T09:58:01.043Z,38.30
2022-08-19T10:00:27.914Z,38.40
2022-08-19T10:02:54.740Z,38.50
2022-08-19T10:05:42.182Z,38.50
2022-08-19T10:08:13.031Z,38.60
2022-08-19T10:10:44.234Z,38.90
2022-08-19T10:13:16.060Z,39.20
2022-08-19T10:15:47.605Z,39.30
2022-08-19T10:18:18.732Z,39.50
2022-08-19T10:20:51.765Z,39.60
2022-08-19T10:23:21.316Z,39.80
2022-08-19T10:25:49.096Z,40.00
2022-08-19T10:28:16.142Z,40.10
2022-08-19T10:30:46.388Z,40.20
2022-08-19T10:33:13.706Z,40.30
2022-08-19T10:35:42.692Z,40.40
2022-08-19T10:38:32.435Z,40.50
2022-08-19T10:41:15.477Z,40.60
2022-08-19T10:43:43.459Z,40.80
2022-08-19T10:46:14.285Z,40.90
2022-08-19T10:48:44.678Z,41.10
2022-08-19T10:51:30.513Z,41.20
2022-08-19T10:53:58.194Z,40.40
2022-08-19T10:56:44.174Z,39.10
2022-08-19T10:59:13.871Z,38.40
2022-08-19T11:01:43.022Z,38.00
2022-08-19T11:04:12.199Z,38.00
2022-08-19T11:06:39.568Z,38.50
2022-08-19T11:09:07.112Z,38.90
2022-08-19T11:11:40.430Z,39.30
2022-08-19T11:14:13.356Z,39.70
2022-08-19T11:16:41.269Z,40.10
2022-08-19T11:19:10.023Z,40.50
2022-08-19T11:21:42.597Z,40.80
2022-08-19T11:24:12.902Z,41.00
2022-08-19T11:26:40.880Z,41.20
2022-08-19T11:29:16.230Z,41.20
2022-08-19T11:31:46.469Z,40.60
2022-08-19T11:34:22.984Z,39.40
2022-08-19T11:36:51.907Z,38.10
2022-08-19T11:39:21.521Z,37.00
2022-08-19T11:41:48.710Z,36.10
2022-08-19T11:44:15.573Z,36.10
2022-08-19T11:46:47.783Z,36.50
2022-08-19T11:49:17.408Z,36.90
2022-08-19T11:51:44.448Z,36.80
2022-08-19T11:54:13.714Z,36.80
2022-08-19T11:56:40.920Z,36.70
2022-08-19T11:59:12.802Z,36.50
2022-08-19T12:01:43.742Z,36.10
2022-08-19T12:04:11.653Z,35.70
2022-08-19T12:06:40.312Z,35.00
2022-08-19T12:09:10.273Z,34.30
2022-08-19T12:11:39.283Z,33.60
2022-08-19T12:14:06.647Z,32.80
2022-08-19T12:16:33.891Z,32.10
2022-08-19T12:19:04.884Z,31.40
2022-08-19T12:21:34.054Z,30.80
2022-08-19T12:24:02.928Z,30.20
2022-08-19T12:26:32.407Z,29.90
2022-08-19T12:29:00.453Z,29.90
2022-08-19T12:31:29.212Z,30.80
2022-08-19T12:33:56.668Z,32.20
2022-08-19T12:36:24.227Z,33.90
2022-08-19T12:38:51.917Z,35.20
2022-08-19T12:41:22.134Z,35.90
2022-08-19T12:43:50.333Z,35.70
2022-08-19T12:46:19.683Z,35.00
2022-08-19T12:48:49.200Z,34.10
2022-08-19T12:51:21.129Z,33.20
2022-08-19T12:53:48.933Z,32.30
2022-08-19T12:56:17.494Z,31.50
2022-08-19T12:58:48.851Z,30.80
2022-08-19T13:01:22.676Z,30.10
2022-08-19T13:03:51.099Z,29.60
2022-08-19T13:06:19.581Z,29.30
2022-08-19T13:08:47.519Z,29.40
2022-08-19T13:11:20.464Z,29.90
2022-08-19T13:13:51.812Z,30.70
2022-08-19T13:16:21.092Z,31.60
2022-08-19T13:18:48.598Z,31.90
2022-08-19T13:21:15.745Z,31.80
2022-08-19T13:23:42.797Z,31.40
2022-08-19T13:26:12.380Z,31.00
2022-08-19T13:28:59.382Z,30.60
2022-08-19T13:31:46.301Z,30.30
2022-08-19T13:34:13.613Z,29.90
2022-08-19T13:36:40.538Z,29.70
2022-08-19T13:39:09.368Z,29.60
2022-08-19T13:41:37.442Z,29.60
2022-08-19T13:44:05.970Z,29.60
2022-08-19T13:46:32.892Z,29.70
2022-08-19T13:48:59.783Z,30.00
2022-08-19T13:51:26.730Z,30.40
2022-08-19T13:53:54.261Z,30.70
2022-08-19T13:56:25.532Z,30.90
2022-08-19T13:58:52.947Z,31.10
2022-08-19T14:01:21.531Z,31.30
2022-08-19T14:03:51.488Z,31.60
2022-08-19T14:06:20.120Z,31.90
2022-08-19T14:08:48.433Z,32.20
2022-08-19T14:11:15.611Z,32.30
2022-08-19T14:13:42.601Z,32.10
2022-08-19T14:16:14.641Z,31.90
2022-08-19T14:18:42.489Z,31.50
2022-08-19T14:21:14.784Z,31.10
2022-08-19T14:23:41.877Z,30.80
2022-08-19T14:26:12.561Z,30.50
2022-08-19T14:28:41.834Z,30.20
2022-08-19T14:31:14.006Z,30.10
2022-08-19T14:33:41.499Z,29.90
2022-08-19T14:36:08.595Z,29.70
2022-08-19T14:38:35.871Z,29.60
2022-08-19T14:41:21.038Z,29.50
2022-08-19T14:43:50.765Z,29.40
2022-08-19T14:46:21.745Z,29.30
2022-08-19T14:48:51.638Z,29.40
2022-08-19T14:51:20.104Z,29.40
2022-08-19T14:53:49.608Z,29.50
2022-08-19T14:56:20.386Z,29.50
2022-08-19T14:58:47.439Z,29.60
2022-08-19T15:01:14.795Z,29.70
2022-08-19T15:03:42.266Z,29.90
2022-08-19T15:06:09.756Z,30.10
2022-08-19T15:08:41.958Z,30.10
2022-08-19T15:11:11.011Z,30.00
2022-08-19T15:13:38.022Z,29.80
2022-08-19T15:16:05.476Z,29.60
2022-08-19T15:18:33.534Z,29.30
2022-08-19T15:21:00.397Z,29.00
2022-08-19T15:23:27.526Z,28.70
2022-08-19T15:25:56.599Z,28.50
2022-08-19T15:28:24.994Z,28.30
2022-08-19T15:30:52.936Z,28.10
2022-08-19T15:33:21.164Z,28.00
2022-08-19T15:35:51.031Z,27.80
2022-08-19T15:38:22.153Z,27.70
2022-08-19T15:40:50.413Z,27.50
2022-08-19T15:43:18.220Z,27.50
2022-08-19T15:45:49.315Z,27.40
2022-08-19T15:48:16.573Z,27.30
2022-08-19T15:50:43.495Z,27.10
2022-08-19T15:53:11.152Z,27.00
2022-08-19T15:55:43.990Z,26.80
2022-08-19T15:58:32.556Z,26.70
2022-08-19T16:01:21.156Z,26.50
2022-08-19T16:04:14.679Z,26.40
2022-08-19T16:06:50.491Z,26.20
2022-08-19T16:09:23.543Z,26.10
2022-08-19T16:11:56.767Z,26.00
2022-08-19T16:14:26.493Z,25.80
2022-08-19T16:16:54.965Z,25.70
2022-08-19T16:19:21.782Z,25.50
2022-08-19T16:21:52.971Z,25.50
2022-08-19T16:24:22.926Z,25.30
2022-08-19T16:26:50.292Z,25.20
2022-08-19T16:29:30.235Z,25.10
2022-08-19T16:32:05.699Z,25.00
2022-08-19T16:34:33.981Z,25.00
2022-08-19T16:37:01.747Z,24.90
2022-08-19T16:39:28.637Z,24.80
2022-08-19T16:41:55.564Z,24.70
2022-08-19T16:44:22.563Z,24.60
2022-08-19T16:46:58.737Z,24.50
2022-08-19T16:49:54.611Z,24.40
2022-08-19T16:52:16.110Z,24.40
2022-08-19T16:54:43.774Z,24.30
2022-08-19T16:57:12.353Z,24.20
2022-08-19T16:59:42.513Z,24.10
2022-08-19T17:02:16.202Z,24.00
2022-08-19T17:04:43.052Z,24.00
2022-08-19T17:07:10.582Z,23.90
2022-08-19T17:09:37.946Z,23.90
2022-08-19T17:12:05.653Z,23.90
2022-08-19T17:14:32.589Z,23.90
2022-08-19T17:16:59.496Z,23.90
2022-08-19T17:19:28.220Z,23.90
2022-08-19T17:21:57.753Z,23.80
2022-08-19T17:24:24.576Z,23.80
2022-08-19T17:26:51.410Z,23.70
2022-08-19T17:29:18.349Z,23.70
2022-08-19T17:31:45.328Z,23.60
2022-08-19T17:34:12.160Z,23.60
2022-08-19T17:36:39.001Z,23.50
2022-08-19T17:39:06.000Z,23.50
2022-08-19T17:41:34.225Z,23.40
2022-08-19T17:44:02.403Z,23.40
2022-08-19T17:46:30.558Z,23.40
2022-08-19T17:48:58.378Z,23.40
2022-08-19T17:51:34.040Z,23.40
2022-08-19T17:54:02.322Z,23.40
2022-08-19T17:56:29.290Z,23.40
2022-08-19T17:58:59.911Z,23.30
2022-08-19T18:01:31.430Z,23.30
2022-08-19T18:04:11.196Z,23.20
2022-08-19T18:06:38.854Z,23.10
2022-08-19T18:09:07.265Z,23.10
2022-08-19T18:11:34.756Z,23.00
2022-08-19T18:14:01.774Z,23.00
2022-08-19T18:16:29.340Z,22.90
2022-08-19T18:18:56.364Z,22.90
2022-08-19T18:21:30.013Z,22.80
2022-08-19T18:24:01.564Z,22.80
2022-08-19T18:26:30.164Z,22.80
2022-08-19T18:28:57.236Z,22.70
2022-08-19T18:31:24.138Z,22.70
2022-08-19T18:33:52.777Z,22.60
2022-08-19T18:36:37.393Z,22.60
2022-08-19T18:39:25.907Z,22.60
2022-08-19T18:42:14.868Z,22.50
2022-08-19T18:45:00.431Z,22.50
2022-08-19T18:48:05.685Z,22.50
2022-08-19T18:50:33.478Z,22.50
2022-08-19T18:53:01.759Z,22.40
2022-08-19T18:55:29.517Z,22.40
2022-08-19T18:57:56.504Z,22.40
2022-08-19T19:00:24.053Z,22.30
2022-08-19T19:02:50.953Z,22.30
2022-08-19T19:05:17.840Z,22.30
2022-08-19T19:07:44.651Z,22.20
2022-08-19T19:10:11.516Z,22.20
2022-08-19T19:12:44.699Z,22.10
2022-08-19T19:15:12.435Z,22.10
2022-08-19T19:17:39.875Z,22.10
2022-08-19T19:20:07.058Z,22.00
2022-08-19T19:22:33.930Z,22.00
2022-08-19T19:25:00.927Z,22.00
2022-08-19T19:27:27.768Z,21.90
2022-08-19T19:29:55.740Z,21.90
2022-08-19T19:32:29.466Z,21.90
2022-08-19T19:34:56.348Z,21.90
2022-08-19T19:37:23.264Z,21.80
2022-08-19T19:39:50.219Z,21.80
2022-08-19T19:42:21.433Z,21.70
2022-08-19T19:44:54.861Z,21.70
2022-08-19T19:47:24.240Z,21.60
2022-08-19T19:50:13.688Z,21.60
2022-08-19T19:52:39.007Z,21.60
2022-08-19T19:55:06.541Z,21.50
2022-08-19T19:57:33.452Z,21.40
2022-08-19T20:00:00.708Z,21.30
2022-08-19T20:02:27.556Z,21.30
2022-08-19T20:04:57.101Z,21.20
2022-08-19T20:07:43.866Z,21.10
2022-08-19T20:10:10.797Z,21.10
2022-08-19T20:12:39.129Z,21.00
2022-08-19T20:15:06.762Z,21.00
2022-08-19T20:17:33.645Z,20.90
2022-08-19T20:20:00.518Z,20.90
2022-08-19T20:22:27.423Z,20.80
2022-08-19T20:25:01.294Z,20.80
2022-08-19T20:27:29.311Z,20.80
2022-08-19T20:29:59.907Z,20.70
2022-08-19T20:32:26.768Z,20.70
2022-08-19T20:34:53.624Z,20.60
2022-08-19T20:37:20.768Z,20.60
2022-08-19T20:39:47.760Z,20.60
2022-08-19T20:42:14.670Z,20.50
2022-08-19T20:44:41.539Z,20.60
2022-08-19T20:47:08.406Z,20.50
2022-08-19T20:49:35.386Z,20.50
2022-08-19T20:52:03.789Z,20.40
2022-08-19T20:54:31.291Z,20.30
2022-08-19T20:56:58.250Z,20.20
2022-08-19T20:59:26.260Z,20.10
2022-08-19T21:01:53.419Z,20.00
2022-08-19T21:04:21.530Z,19.90
2022-08-19T21:06:50.014Z,19.90
2022-08-19T21:09:17.035Z,19.80
2022-08-19T21:11:44.165Z,19.80
2022-08-19T21:14:11.011Z,19.80
2022-08-19T21:16:37.899Z,19.70
2022-08-19T21:19:04.935Z,19.70
2022-08-19T21:21:33.068Z,19.70
2022-08-19T21:23:59.981Z,19.60
2022-08-19T21:26:26.952Z,19.60
2022-08-19T21:28:53.824Z,19.50
2022-08-19T21:31:21.097Z,19.50
2022-08-19T21:33:48.028Z,19.50
2022-08-19T21:36:14.961Z,19.50
2022-08-19T21:38:41.996Z,19.40
2022-08-19T21:41:08.825Z,19.40
2022-08-19T21:43:37.166Z,19.40
2022-08-19T21:46:04.951Z,19.30
2022-08-19T21:48:31.867Z,19.40
2022-08-19T21:50:58.747Z,19.30
2022-08-19T21:53:34.196Z,19.30
2022-08-19T21:56:02.488Z,19.30
2022-08-19T21:58:30.302Z,19.30
2022-08-19T22:01:05.675Z,19.30
2022-08-19T22:03:34.338Z,19.30
2022-08-19T22:06:01.580Z,19.30
2022-08-19T22:08:28.613Z,19.30
2022-08-19T22:10:55.764Z,19.30
2022-08-19T22:13:23.485Z,19.40
2022-08-19T22:15:51.965Z,19.40
2022-08-19T22:18:19.049Z,19.40
2022-08-19T22:20:46.405Z,19.50
2022-08-19T22:23:13.767Z,19.50
2022-08-19T22:25:45.399Z,19.50
2022-08-19T22:28:14.035Z,19.50
2022-08-19T22:30:47.318Z,19.50
2022-08-19T22:33:20.668Z,19.60
2022-08-19T22:35:48.340Z,19.60
2022-08-19T22:38:16.012Z,19.60
2022-08-19T22:40:47.290Z,19.60
2022-08-19T22:43:17.989Z,19.60
2022-08-19T22:45:46.464Z,19.50
2022-08-19T22:48:17.739Z,19.40
2022-08-19T22:51:06.047Z,19.40
2022-08-19T22:53:38.167Z,19.40
2022-08-19T22:56:07.947Z,19.30
2022-08-19T22:58:36.854Z,19.30
2022-08-19T23:01:04.110Z,19.30
2022-08-19T23:03:31.056Z,19.30
2022-08-19T23:05:57.885Z,19.20
2022-08-19T23:08:25.211Z,19.20
2022-08-19T23:10:52.083Z,19.20
2022-08-19T23:13:19.035Z,19.10
2022-08-19T23:15:46.796Z,19.20
2022-08-19T23:18:14.729Z,19.20
2022-08-19T23:20:44.706Z,19.10
2022-08-19T23:23:13.952Z,19.10
2022-08-19T23:25:41.131Z,19.10
2022-08-19T23:28:26.587Z,19.10
2022-08-19T23:30:53.824Z,19.10
2022-08-19T23:33:46.438Z,19.10
2022-08-19T23:36:18.845Z,19.10
2022-08-19T23:38:48.729Z,19.10
2022-08-19T23:41:17.496Z,19.10
2022-08-19T23:43:44.879Z,19.10
2022-08-19T23:46:14.368Z,19.10
2022-08-19T23:48:55.555Z,19.10
2022-08-19T23:51:22.547Z,19.00
2022-08-19T23:53:49.536Z,19.00
2022-08-19T23:56:16.348Z,19.00
2022-08-19T23:58:43.173Z,19.00
